sensor_id;sensor_type;location;lat;lon;timestamp;temperature;humidity
60033;DHT22;45905;50.570;10.428;2023-05-08T00:02:09;11.60;84.50
60033;DHT22;45905;50.570;10.428;2023-05-08T00:04:36;11.60;83.90
60033;DHT22;45905;50.570;10.428;2023-05-08T00:07:03;11.60;83.40
60033;DHT22;45905;50.570;10.428;2023-05-08T00:09:30;11.50;83.70
60033;DHT22;45905;50.570;10.428;2023-05-08T00:11:57;11.50;85.50
60033;DHT22;45905;50.570;10.428;2023-05-08T00:14:25;11.50;85.70
60033;DHT22;45905;50.570;10.428;2023-05-08T00:16:52;11.40;85.20
60033;DHT22;45905;50.570;10.428;2023-05-08T00:19:19;11.40;85.50
60033;DHT22;45905;50.570;10.428;2023-05-08T00:21:46;11.40;86.10
60033;DHT22;45905;50.570;10.428;2023-05-08T00:24:13;11.40;86.40
60033;DHT22;45905;50.570;10.428;2023-05-08T00:26:40;11.30;86.00
60033;DHT22;45905;50.570;10.428;2023-05-08T00:29:10;11.30;86.70
60033;DHT22;45905;50.570;10.428;2023-05-08T00:31:37;11.20;87.00
60033;DHT22;45905;50.570;10.428;2023-05-08T00:34:04;11.20;87.20
60033;DHT22;45905;50.570;10.428;2023-05-08T00:36:31;11.20;86.40
60033;DHT22;45905;50.570;10.428;2023-05-08T00:38:58;10.50;85.00
60033;DHT22;45905;50.570;10.428;2023-05-08T00:41:25;11.10;85.30
60033;DHT22;45905;50.570;10.428;2023-05-08T00:43:53;11.10;85.90
60033;DHT22;45905;50.570;10.428;2023-05-08T00:46:20;11.10;86.70
60033;DHT22;45905;50.570;10.428;2023-05-08T00:48:47;11.10;86.20
60033;DHT22;45905;50.570;10.428;2023-05-08T00:51:15;11.00;85.60
60033;DHT22;45905;50.570;10.428;2023-05-08T00:53:43;11.00;86.50
60033;DHT22;45905;50.570;10.428;2023-05-08T00:56:13;10.90;87.60
60033;DHT22;45905;50.570;10.428;2023-05-08T00:58:42;10.90;88.30
60033;DHT22;45905;50.570;10.428;2023-05-08T01:01:11;10.80;88.40
60033;DHT22;45905;50.570;10.428;2023-05-08T01:03:39;10.90;88.60
60033;DHT22;45905;50.570;10.428;2023-05-08T01:06:07;11.00;88.90
60033;DHT22;45905;50.570;10.428;2023-05-08T01:08:35;10.80;88.70
60033;DHT22;45905;50.570;10.428;2023-05-08T01:14:16;10.70;87.10
60033;DHT22;45905;50.570;10.428;2023-05-08T01:34:32;10.50;88.00
60033;DHT22;45905;50.570;10.428;2023-05-08T01:37:07;10.50;88.70
60033;DHT22;45905;50.570;10.428;2023-05-08T01:45:18;14.20;90.70
60033;DHT22;45905;50.570;10.428;2023-05-08T01:47:58;10.40;88.40
60033;DHT22;45905;50.570;10.428;2023-05-08T01:50:34;10.30;88.80
60033;DHT22;45905;50.570;10.428;2023-05-08T01:53:24;10.30;89.40
60033;DHT22;45905;50.570;10.428;2023-05-08T01:55:59;10.30;88.90
60033;DHT22;45905;50.570;10.428;2023-05-08T01:58:34;10.30;89.30
60033;DHT22;45905;50.570;10.428;2023-05-08T02:01:05;10.20;89.20
60033;DHT22;45905;50.570;10.428;2023-05-08T02:03:34;10.20;89.20
60033;DHT22;45905;50.570;10.428;2023-05-08T02:06:05;10.10;89.30
60033;DHT22;45905;50.570;10.428;2023-05-08T02:08:35;10.10;88.50
60033;DHT22;45905;50.570;10.428;2023-05-08T02:11:05;10.10;89.00
60033;DHT22;45905;50.570;10.428;2023-05-08T02:13:34;10.00;89.00
60033;DHT22;45905;50.570;10.428;2023-05-08T02:16:02;10.00;89.60
60033;DHT22;45905;50.570;10.428;2023-05-08T02:18:33;10.00;89.20
60033;DHT22;45905;50.570;10.428;2023-05-08T02:21:05;9.90;90.30
60033;DHT22;45905;50.570;10.428;2023-05-08T02:23:35;9.90;90.30
60033;DHT22;45905;50.570;10.428;2023-05-08T02:26:03;9.90;90.00
60033;DHT22;45905;50.570;10.428;2023-05-08T02:28:32;9.80;90.10
60033;DHT22;45905;50.570;10.428;2023-05-08T02:31:00;9.90;90.30
60033;DHT22;45905;50.570;10.428;2023-05-08T02:33:29;9.80;90.50
60033;DHT22;45905;50.570;10.428;2023-05-08T02:35:58;9.80;90.90
60033;DHT22;45905;50.570;10.428;2023-05-08T02:38:27;9.80;91.10
60033;DHT22;45905;50.570;10.428;2023-05-08T02:40:59;9.80;91.00
60033;DHT22;45905;50.570;10.428;2023-05-08T02:43:29;9.70;91.30
60033;DHT22;45905;50.570;10.428;2023-05-08T02:46:11;9.70;91.40
60033;DHT22;45905;50.570;10.428;2023-05-08T02:49:02;9.70;91.30
60033;DHT22;45905;50.570;10.428;2023-05-08T02:54:39;9.60;90.50
60033;DHT22;45905;50.570;10.428;2023-05-08T02:57:20;9.60;90.50
60033;DHT22;45905;50.570;10.428;2023-05-08T03:00:17;9.60;90.70
60033;DHT22;45905;50.570;10.428;2023-05-08T03:02:53;9.50;90.60
60033;DHT22;45905;50.570;10.428;2023-05-08T03:05:33;9.60;91.20
60033;DHT22;45905;50.570;10.428;2023-05-08T03:08:06;9.60;91.40
60033;DHT22;45905;50.570;10.428;2023-05-08T03:10:42;9.50;90.90
60033;DHT22;45905;50.570;10.428;2023-05-08T03:13:14;9.50;90.90
60033;DHT22;45905;50.570;10.428;2023-05-08T03:15:53;9.50;91.20
60033;DHT22;45905;50.570;10.428;2023-05-08T03:18:27;9.50;91.10
60033;DHT22;45905;50.570;10.428;2023-05-08T03:20:59;9.50;91.00
60033;DHT22;45905;50.570;10.428;2023-05-08T03:23:29;9.50;91.10
60033;DHT22;45905;50.570;10.428;2023-05-08T03:26:00;9.50;91.70
60033;DHT22;45905;50.570;10.428;2023-05-08T03:28:29;9.50;91.90
60033;DHT22;45905;50.570;10.428;2023-05-08T03:30:59;9.50;91.70
60033;DHT22;45905;50.570;10.428;2023-05-08T03:33:28;9.50;91.70
60033;DHT22;45905;50.570;10.428;2023-05-08T03:35:58;9.50;92.00
60033;DHT22;45905;50.570;10.428;2023-05-08T03:38:26;9.50;91.70
60033;DHT22;45905;50.570;10.428;2023-05-08T03:40:53;9.50;91.40
60033;DHT22;45905;50.570;10.428;2023-05-08T03:43:21;9.40;91.30
60033;DHT22;45905;50.570;10.428;2023-05-08T03:45:49;9.80;91.70
60033;DHT22;45905;50.570;10.428;2023-05-08T03:48:18;9.40;92.00
60033;DHT22;45905;50.570;10.428;2023-05-08T03:50:48;9.40;92.10
60033;DHT22;45905;50.570;10.428;2023-05-08T03:53:16;9.40;92.20
60033;DHT22;45905;50.570;10.428;2023-05-08T03:55:43;9.40;92.10
60033;DHT22;45905;50.570;10.428;2023-05-08T03:58:40;9.20;91.60
60033;DHT22;45905;50.570;10.428;2023-05-08T04:04:22;8.90;91.50
60033;DHT22;45905;50.570;10.428;2023-05-08T04:07:30;9.30;92.20
60033;DHT22;45905;50.570;10.428;2023-05-08T04:13:11;9.30;91.90
60033;DHT22;45905;50.570;10.428;2023-05-08T04:15:51;9.30;91.60
60033;DHT22;45905;50.570;10.428;2023-05-08T04:18:28;9.30;91.70
60033;DHT22;45905;50.570;10.428;2023-05-08T04:21:00;9.30;92.40
60033;DHT22;45905;50.570;10.428;2023-05-08T04:23:29;9.30;92.60
60033;DHT22;45905;50.570;10.428;2023-05-08T04:25:59;9.30;92.90
60033;DHT22;45905;50.570;10.428;2023-05-08T04:28:29;9.40;93.00
60033;DHT22;45905;50.570;10.428;2023-05-08T04:30:57;9.40;92.50
60033;DHT22;45905;50.570;10.428;2023-05-08T04:33:25;9.40;92.80
60033;DHT22;45905;50.570;10.428;2023-05-08T04:35:55;9.40;93.10
60033;DHT22;45905;50.570;10.428;2023-05-08T04:38:22;9.30;93.30
60033;DHT22;45905;50.570;10.428;2023-05-08T04:40:50;9.40;93.40
60033;DHT22;45905;50.570;10.428;2023-05-08T04:43:17;9.70;93.30
60033;DHT22;45905;50.570;10.428;2023-05-08T04:45:44;9.40;93.30
60033;DHT22;45905;50.570;10.428;2023-05-08T04:48:12;9.30;93.40
60033;DHT22;45905;50.570;10.428;2023-05-08T04:50:39;9.50;93.60
60033;DHT22;45905;50.570;10.428;2023-05-08T04:53:07;9.50;93.40
60033;DHT22;45905;50.570;10.428;2023-05-08T04:55:34;9.70;93.50
60033;DHT22;45905;50.570;10.428;2023-05-08T04:58:01;9.50;93.50
60033;DHT22;45905;50.570;10.428;2023-05-08T05:00:29;9.60;93.60
60033;DHT22;45905;50.570;10.428;2023-05-08T05:02:56;9.50;93.40
60033;DHT22;45905;50.570;10.428;2023-05-08T05:05:23;9.50;93.30
60033;DHT22;45905;50.570;10.428;2023-05-08T05:07:50;9.60;93.50
60033;DHT22;45905;50.570;10.428;2023-05-08T05:10:19;9.60;94.10
60033;DHT22;45905;50.570;10.428;2023-05-08T05:12:46;9.60;94.10
60033;DHT22;45905;50.570;10.428;2023-05-08T05:15:13;9.70;94.20
60033;DHT22;45905;50.570;10.428;2023-05-08T05:17:42;9.60;94.20
60033;DHT22;45905;50.570;10.428;2023-05-08T05:20:10;9.70;94.10
60033;DHT22;45905;50.570;10.428;2023-05-08T05:22:37;9.80;94.00
60033;DHT22;45905;50.570;10.428;2023-05-08T05:25:05;9.80;94.00
60033;DHT22;45905;50.570;10.428;2023-05-08T05:27:34;9.70;94.10
60033;DHT22;45905;50.570;10.428;2023-05-08T05:30:07;9.70;94.00
60033;DHT22;45905;50.570;10.428;2023-05-08T05:32:35;9.80;94.10
60033;DHT22;45905;50.570;10.428;2023-05-08T05:35:02;9.80;94.20
60033;DHT22;45905;50.570;10.428;2023-05-08T05:37:30;9.80;94.20
60033;DHT22;45905;50.570;10.428;2023-05-08T05:39:57;9.80;94.20
60033;DHT22;45905;50.570;10.428;2023-05-08T05:42:24;9.90;94.30
60033;DHT22;45905;50.570;10.428;2023-05-08T05:44:52;9.90;94.40
60033;DHT22;45905;50.570;10.428;2023-05-08T05:47:20;10.00;94.00
60033;DHT22;45905;50.570;10.428;2023-05-08T05:49:47;10.00;94.00
60033;DHT22;45905;50.570;10.428;2023-05-08T05:52:14;10.10;94.10
60033;DHT22;45905;50.570;10.428;2023-05-08T05:54:42;10.10;94.20
60033;DHT22;45905;50.570;10.428;2023-05-08T05:57:09;10.30;94.30
60033;DHT22;45905;50.570;10.428;2023-05-08T05:59:36;10.30;94.40
60033;DHT22;45905;50.570;10.428;2023-05-08T06:02:06;10.30;94.40
60033;DHT22;45905;50.570;10.428;2023-05-08T06:04:40;10.40;94.40
60033;DHT22;45905;50.570;10.428;2023-05-08T06:07:07;10.50;94.40
60033;DHT22;45905;50.570;10.428;2023-05-08T06:09:36;10.50;94.50
60033;DHT22;45905;50.570;10.428;2023-05-08T06:12:03;7.10;93.50
60033;DHT22;45905;50.570;10.428;2023-05-08T06:14:30;10.60;94.50
60033;DHT22;45905;50.570;10.428;2023-05-08T06:16:57;15.20;96.70
60033;DHT22;45905;50.570;10.428;2023-05-08T06:19:25;10.70;94.60
60033;DHT22;45905;50.570;10.428;2023-05-08T06:21:54;10.80;94.60
60033;DHT22;45905;50.570;10.428;2023-05-08T06:24:21;10.80;94.60
60033;DHT22;45905;50.570;10.428;2023-05-08T06:26:48;11.10;94.70
60033;DHT22;45905;50.570;10.428;2023-05-08T06:29:15;11.00;94.70
60033;DHT22;45905;50.570;10.428;2023-05-08T06:31:42;11.10;94.60
60033;DHT22;45905;50.570;10.428;2023-05-08T06:34:10;11.10;94.60
60033;DHT22;45905;50.570;10.428;2023-05-08T06:36:37;11.20;94.30
60033;DHT22;45905;50.570;10.428;2023-05-08T06:39:05;11.30;94.20
60033;DHT22;45905;50.570;10.428;2023-05-08T06:41:33;11.30;94.20
60033;DHT22;45905;50.570;10.428;2023-05-08T06:44:00;11.40;94.10
60033;DHT22;45905;50.570;10.428;2023-05-08T06:46:27;11.40;94.20
60033;DHT22;45905;50.570;10.428;2023-05-08T06:48:55;11.50;93.90
60033;DHT22;45905;50.570;10.428;2023-05-08T06:51:22;11.60;93.90
60033;DHT22;45905;50.570;10.428;2023-05-08T06:53:49;11.60;94.00
60033;DHT22;45905;50.570;10.428;2023-05-08T06:56:17;11.60;93.90
60033;DHT22;45905;50.570;10.428;2023-05-08T06:58:44;11.70;94.00
60033;DHT22;45905;50.570;10.428;2023-05-08T07:01:30;11.80;94.10
60033;DHT22;45905;50.570;10.428;2023-05-08T07:03:57;11.90;94.20
60033;DHT22;45905;50.570;10.428;2023-05-08T07:06:25;11.90;94.00
60033;DHT22;45905;50.570;10.428;2023-05-08T07:08:53;12.00;93.70
60033;DHT22;45905;50.570;10.428;2023-05-08T07:11:20;12.00;93.70
60033;DHT22;45905;50.570;10.428;2023-05-08T07:13:47;12.10;93.90
60033;DHT22;45905;50.570;10.428;2023-05-08T07:16:15;12.10;93.90
60033;DHT22;45905;50.570;10.428;2023-05-08T07:18:42;12.20;94.00
60033;DHT22;45905;50.570;10.428;2023-05-08T07:21:10;12.30;93.80
60033;DHT22;45905;50.570;10.428;2023-05-08T07:23:37;12.40;93.10
60033;DHT22;45905;50.570;10.428;2023-05-08T07:26:04;12.50;93.00
60033;DHT22;45905;50.570;10.428;2023-05-08T07:28:31;12.60;93.00
60033;DHT22;45905;50.570;10.428;2023-05-08T07:30:58;12.70;92.90
60033;DHT22;45905;50.570;10.428;2023-05-08T07:33:25;12.70;92.50
60033;DHT22;45905;50.570;10.428;2023-05-08T07:35:53;12.80;92.40
60033;DHT22;45905;50.570;10.428;2023-05-08T07:38:20;12.90;92.30
60033;DHT22;45905;50.570;10.428;2023-05-08T07:40:47;13.00;92.30
60033;DHT22;45905;50.570;10.428;2023-05-08T07:43:14;13.10;92.00
60033;DHT22;45905;50.570;10.428;2023-05-08T07:45:41;13.10;91.90
60033;DHT22;45905;50.570;10.428;2023-05-08T07:48:09;13.20;91.60
60033;DHT22;45905;50.570;10.428;2023-05-08T07:50:36;13.30;91.30
60033;DHT22;45905;50.570;10.428;2023-05-08T07:53:03;13.30;90.90
60033;DHT22;45905;50.570;10.428;2023-05-08T07:55:30;13.40;90.60
60033;DHT22;45905;50.570;10.428;2023-05-08T07:57:57;13.50;90.70
60033;DHT22;45905;50.570;10.428;2023-05-08T08:00:25;13.50;90.70
60033;DHT22;45905;50.570;10.428;2023-05-08T08:02:55;13.60;90.40
60033;DHT22;45905;50.570;10.428;2023-05-08T08:05:23;13.60;90.20
60033;DHT22;45905;50.570;10.428;2023-05-08T08:07:50;13.70;90.00
60033;DHT22;45905;50.570;10.428;2023-05-08T08:10:20;13.80;89.90
60033;DHT22;45905;50.570;10.428;2023-05-08T08:12:47;13.80;90.00
60033;DHT22;45905;50.570;10.428;2023-05-08T08:15:15;13.90;90.00
60033;DHT22;45905;50.570;10.428;2023-05-08T08:17:42;14.00;90.00
60033;DHT22;45905;50.570;10.428;2023-05-08T08:20:09;14.00;89.70
60033;DHT22;45905;50.570;10.428;2023-05-08T08:22:37;14.10;89.60
60033;DHT22;45905;50.570;10.428;2023-05-08T08:25:05;14.30;89.90
60033;DHT22;45905;50.570;10.428;2023-05-08T08:27:32;14.30;89.90
60033;DHT22;45905;50.570;10.428;2023-05-08T08:29:59;14.30;90.00
60033;DHT22;45905;50.570;10.428;2023-05-08T08:32:42;14.40;90.10
60033;DHT22;45905;50.570;10.428;2023-05-08T08:35:09;14.50;88.00
60033;DHT22;45905;50.570;10.428;2023-05-08T08:37:37;14.50;89.20
60033;DHT22;45905;50.570;10.428;2023-05-08T08:40:05;14.60;89.30
60033;DHT22;45905;50.570;10.428;2023-05-08T08:42:32;14.70;89.70
60033;DHT22;45905;50.570;10.428;2023-05-08T08:45:00;14.80;89.10
60033;DHT22;45905;50.570;10.428;2023-05-08T08:47:34;14.90;89.50
60033;DHT22;45905;50.570;10.428;2023-05-08T08:50:08;15.00;88.50
60033;DHT22;45905;50.570;10.428;2023-05-08T08:52:57;15.10;88.50
60033;DHT22;45905;50.570;10.428;2023-05-08T08:55:29;15.20;88.30
60033;DHT22;45905;50.570;10.428;2023-05-08T08:58:21;15.30;87.70
60033;DHT22;45905;50.570;10.428;2023-05-08T09:01:19;15.40;88.00
60033;DHT22;45905;50.570;10.428;2023-05-08T09:03:48;15.60;87.80
60033;DHT22;45905;50.570;10.428;2023-05-08T09:06:16;15.70;86.40
60033;DHT22;45905;50.570;10.428;2023-05-08T09:08:45;15.80;85.90
60033;DHT22;45905;50.570;10.428;2023-05-08T09:11:13;15.80;85.00
60033;DHT22;45905;50.570;10.428;2023-05-08T09:13:40;15.90;84.70
60033;DHT22;45905;50.570;10.428;2023-05-08T09:16:07;16.00;83.20
60033;DHT22;45905;50.570;10.428;2023-05-08T09:18:35;16.10;83.60
60033;DHT22;45905;50.570;10.428;2023-05-08T09:21:05;16.20;83.00
60033;DHT22;45905;50.570;10.428;2023-05-08T09:23:35;16.20;83.00
60033;DHT22;45905;50.570;10.428;2023-05-08T09:26:02;16.30;84.40
60033;DHT22;45905;50.570;10.428;2023-05-08T09:28:29;16.40;83.60
60033;DHT22;45905;50.570;10.428;2023-05-08T09:30:58;16.50;82.70
60033;DHT22;45905;50.570;10.428;2023-05-08T09:33:28;16.60;82.30
60033;DHT22;45905;50.570;10.428;2023-05-08T09:35:56;16.70;80.80
60033;DHT22;45905;50.570;10.428;2023-05-08T09:38:39;16.70;80.90
60033;DHT22;45905;50.570;10.428;2023-05-08T09:41:17;16.80;81.60
60033;DHT22;45905;50.570;10.428;2023-05-08T09:43:58;16.90;80.30
60033;DHT22;45905;50.570;10.428;2023-05-08T09:46:28;16.90;80.40
60033;DHT22;45905;50.570;10.428;2023-05-08T09:48:57;17.00;81.20
60033;DHT22;45905;50.570;10.428;2023-05-08T09:51:28;17.10;80.10
60033;DHT22;45905;50.570;10.428;2023-05-08T09:53:58;17.20;79.30
60033;DHT22;45905;50.570;10.428;2023-05-08T09:56:36;17.20;78.40
60033;DHT22;45905;50.570;10.428;2023-05-08T10:01:49;17.40;78.10
60033;DHT22;45905;50.570;10.428;2023-05-08T10:04:16;17.50;78.30
60033;DHT22;45905;50.570;10.428;2023-05-08T10:06:56;17.50;79.70
60033;DHT22;45905;50.570;10.428;2023-05-08T10:09:24;17.70;76.90
60033;DHT22;45905;50.570;10.428;2023-05-08T10:11:56;17.80;76.50
60033;DHT22;45905;50.570;10.428;2023-05-08T10:14:23;17.90;75.50
60033;DHT22;45905;50.570;10.428;2023-05-08T10:16:52;18.00;76.60
60033;DHT22;45905;50.570;10.428;2023-05-08T10:19:22;18.10;75.20
60033;DHT22;45905;50.570;10.428;2023-05-08T10:21:53;18.10;73.50
60033;DHT22;45905;50.570;10.428;2023-05-08T10:24:32;18.20;73.80
60033;DHT22;45905;50.570;10.428;2023-05-08T10:27:04;18.30;73.70
60033;DHT22;45905;50.570;10.428;2023-05-08T10:29:44;18.30;71.90
60033;DHT22;45905;50.570;10.428;2023-05-08T10:32:14;18.30;73.00
60033;DHT22;45905;50.570;10.428;2023-05-08T10:34:48;18.40;73.10
60033;DHT22;45905;50.570;10.428;2023-05-08T10:37:24;18.50;74.10
60033;DHT22;45905;50.570;10.428;2023-05-08T10:39:54;18.60;72.50
60033;DHT22;45905;50.570;10.428;2023-05-08T10:42:24;18.60;72.70
60033;DHT22;45905;50.570;10.428;2023-05-08T10:44:52;18.80;72.80
60033;DHT22;45905;50.570;10.428;2023-05-08T10:50:50;18.90;71.50
60033;DHT22;45905;50.570;10.428;2023-05-08T10:56:16;18.90;70.70
60033;DHT22;45905;50.570;10.428;2023-05-08T10:58:43;19.00;70.00
60033;DHT22;45905;50.570;10.428;2023-05-08T11:01:12;19.10;70.40
60033;DHT22;45905;50.570;10.428;2023-05-08T11:03:46;19.30;68.80
60033;DHT22;45905;50.570;10.428;2023-05-08T11:06:18;19.30;70.00
60033;DHT22;45905;50.570;10.428;2023-05-08T11:09:08;19.50;69.20
60033;DHT22;45905;50.570;10.428;2023-05-08T11:11:42;19.70;68.60
60033;DHT22;45905;50.570;10.428;2023-05-08T11:14:20;19.70;68.80
60033;DHT22;45905;50.570;10.428;2023-05-08T11:19:25;19.90;65.10
60033;DHT22;45905;50.570;10.428;2023-05-08T11:22:13;19.90;66.60
60033;DHT22;45905;50.570;10.428;2023-05-08T11:25:04;20.00;66.30
60033;DHT22;45905;50.570;10.428;2023-05-08T11:27:40;20.10;65.80
60033;DHT22;45905;50.570;10.428;2023-05-08T11:38:34;20.40;64.80
60033;DHT22;45905;50.570;10.428;2023-05-08T11:41:20;20.50;62.20
60033;DHT22;45905;50.570;10.428;2023-05-08T11:47:08;20.60;64.00
60033;DHT22;45905;50.570;10.428;2023-05-08T11:49:29;20.70;63.60
60033;DHT22;45905;50.570;10.428;2023-05-08T11:51:57;20.70;62.80
60033;DHT22;45905;50.570;10.428;2023-05-08T11:54:28;20.80;63.70
60033;DHT22;45905;50.570;10.428;2023-05-08T11:56:56;21.00;63.60
60033;DHT22;45905;50.570;10.428;2023-05-08T11:59:25;21.10;65.10
60033;DHT22;45905;50.570;10.428;2023-05-08T12:01:52;21.20;61.50
60033;DHT22;45905;50.570;10.428;2023-05-08T12:04:45;21.30;61.70
60033;DHT22;45905;50.570;10.428;2023-05-08T12:07:13;21.40;63.00
60033;DHT22;45905;50.570;10.428;2023-05-08T12:09:41;21.80;62.00
60033;DHT22;45905;50.570;10.428;2023-05-08T12:12:09;21.60;60.40
60033;DHT22;45905;50.570;10.428;2023-05-08T12:14:36;21.60;60.30
60033;DHT22;45905;50.570;10.428;2023-05-08T12:17:03;21.60;60.50
60033;DHT22;45905;50.570;10.428;2023-05-08T12:19:30;21.70;59.60
60033;DHT22;45905;50.570;10.428;2023-05-08T12:21:57;21.70;60.20
60033;DHT22;45905;50.570;10.428;2023-05-08T12:24:24;21.70;59.00
60033;DHT22;45905;50.570;10.428;2023-05-08T12:26:53;21.70;59.10
60033;DHT22;45905;50.570;10.428;2023-05-08T12:29:23;21.70;59.70
60033;DHT22;45905;50.570;10.428;2023-05-08T12:31:53;21.80;60.60
60033;DHT22;45905;50.570;10.428;2023-05-08T12:34:21;21.80;61.60
60033;DHT22;45905;50.570;10.428;2023-05-08T12:36:48;22.00;59.50
60033;DHT22;45905;50.570;10.428;2023-05-08T12:39:26;22.10;60.70
60033;DHT22;45905;50.570;10.428;2023-05-08T12:41:53;22.20;62.30
60033;DHT22;45905;50.570;10.428;2023-05-08T12:44:25;22.20;60.80
60033;DHT22;45905;50.570;10.428;2023-05-08T12:46:54;22.30;58.90
60033;DHT22;45905;50.570;10.428;2023-05-08T12:49:30;22.30;58.70
60033;DHT22;45905;50.570;10.428;2023-05-08T12:52:06;22.40;60.50
60033;DHT22;45905;50.570;10.428;2023-05-08T12:54:39;22.40;59.70
60033;DHT22;45905;50.570;10.428;2023-05-08T12:57:15;22.40;59.60
60033;DHT22;45905;50.570;10.428;2023-05-08T12:59:44;22.50;59.00
60033;DHT22;45905;50.570;10.428;2023-05-08T13:02:17;22.60;59.70
60033;DHT22;45905;50.570;10.428;2023-05-08T13:04:53;22.70;60.70
60033;DHT22;45905;50.570;10.428;2023-05-08T13:07:22;22.80;61.20
60033;DHT22;45905;50.570;10.428;2023-05-08T13:10:00;23.00;60.80
60033;DHT22;45905;50.570;10.428;2023-05-08T13:12:30;23.20;61.00
60033;DHT22;45905;50.570;10.428;2023-05-08T13:14:57;23.40;57.80
60033;DHT22;45905;50.570;10.428;2023-05-08T13:17:25;24.30;58.30
60033;DHT22;45905;50.570;10.428;2023-05-08T13:19:52;23.60;59.40
60033;DHT22;45905;50.570;10.428;2023-05-08T13:22:19;23.80;60.70
60033;DHT22;45905;50.570;10.428;2023-05-08T13:24:48;24.00;60.20
60033;DHT22;45905;50.570;10.428;2023-05-08T13:27:15;24.10;59.20
60033;DHT22;45905;50.570;10.428;2023-05-08T13:29:43;24.20;59.30
60033;DHT22;45905;50.570;10.428;2023-05-08T13:32:10;24.30;56.30
60033;DHT22;45905;50.570;10.428;2023-05-08T13:34:37;24.30;57.50
60033;DHT22;45905;50.570;10.428;2023-05-08T13:37:15;24.30;57.80
60033;DHT22;45905;50.570;10.428;2023-05-08T13:39:42;24.30;57.70
60033;DHT22;45905;50.570;10.428;2023-05-08T13:42:10;24.20;55.30
60033;DHT22;45905;50.570;10.428;2023-05-08T13:44:37;23.90;56.10
60033;DHT22;45905;50.570;10.428;2023-05-08T13:47:04;23.80;56.50
60033;DHT22;45905;50.570;10.428;2023-05-08T13:49:31;23.70;57.70
60033;DHT22;45905;50.570;10.428;2023-05-08T13:51:58;23.90;59.30
60033;DHT22;45905;50.570;10.428;2023-05-08T13:54:25;23.90;59.60
60033;DHT22;45905;50.570;10.428;2023-05-08T13:56:52;24.30;59.80
60033;DHT22;45905;50.570;10.428;2023-05-08T13:59:20;24.50;57.50
60033;DHT22;45905;50.570;10.428;2023-05-08T14:01:47;24.70;56.90
60033;DHT22;45905;50.570;10.428;2023-05-08T14:04:14;24.90;56.80
60033;DHT22;45905;50.570;10.428;2023-05-08T14:06:41;25.10;58.40
60033;DHT22;45905;50.570;10.428;2023-05-08T14:09:08;25.20;56.90
60033;DHT22;45905;50.570;10.428;2023-05-08T14:11:35;25.40;54.30
60033;DHT22;45905;50.570;10.428;2023-05-08T14:14:02;25.20;54.00
60033;DHT22;45905;50.570;10.428;2023-05-08T14:16:30;25.10;53.70
60033;DHT22;45905;50.570;10.428;2023-05-08T14:18:58;24.60;54.50
60033;DHT22;45905;50.570;10.428;2023-05-08T14:21:26;24.40;55.90
60033;DHT22;45905;50.570;10.428;2023-05-08T14:23:53;24.30;56.50
60033;DHT22;45905;50.570;10.428;2023-05-08T14:26:20;23.90;56.00
60033;DHT22;45905;50.570;10.428;2023-05-08T14:28:47;23.60;56.40
60033;DHT22;45905;50.570;10.428;2023-05-08T14:31:15;23.50;57.40
60033;DHT22;45905;50.570;10.428;2023-05-08T14:33:42;23.40;57.50
60033;DHT22;45905;50.570;10.428;2023-05-08T14:36:09;23.20;57.10
60033;DHT22;45905;50.570;10.428;2023-05-08T14:38:36;23.00;57.80
60033;DHT22;45905;50.570;10.428;2023-05-08T14:41:03;23.00;58.70
60033;DHT22;45905;50.570;10.428;2023-05-08T14:43:31;22.60;59.30
60033;DHT22;45905;50.570;10.428;2023-05-08T14:45:58;21.50;57.80
60033;DHT22;45905;50.570;10.428;2023-05-08T14:48:25;22.20;58.80
60033;DHT22;45905;50.570;10.428;2023-05-08T14:50:53;22.00;60.10
60033;DHT22;45905;50.570;10.428;2023-05-08T14:53:21;22.00;61.50
60033;DHT22;45905;50.570;10.428;2023-05-08T14:55:49;22.80;60.10
60033;DHT22;45905;50.570;10.428;2023-05-08T14:58:17;22.00;59.70
60033;DHT22;45905;50.570;10.428;2023-05-08T15:00:44;22.30;60.60
60033;DHT22;45905;50.570;10.428;2023-05-08T15:03:11;22.20;61.70
60033;DHT22;45905;50.570;10.428;2023-05-08T15:05:39;22.60;60.50
60033;DHT22;45905;50.570;10.428;2023-05-08T15:08:06;22.60;61.00
60033;DHT22;45905;50.570;10.428;2023-05-08T15:10:35;22.70;60.60
60033;DHT22;45905;50.570;10.428;2023-05-08T15:13:02;22.60;61.90
60033;DHT22;45905;50.570;10.428;2023-05-08T15:15:29;22.60;61.30
60033;DHT22;45905;50.570;10.428;2023-05-08T15:17:56;22.70;61.30
60033;DHT22;45905;50.570;10.428;2023-05-08T15:20:24;22.60;61.80
60033;DHT22;45905;50.570;10.428;2023-05-08T15:22:51;22.50;62.30
60033;DHT22;45905;50.570;10.428;2023-05-08T15:25:19;22.60;62.40
60033;DHT22;45905;50.570;10.428;2023-05-08T15:27:47;22.30;62.30
60033;DHT22;45905;50.570;10.428;2023-05-08T15:30:19;22.30;63.10
60033;DHT22;45905;50.570;10.428;2023-05-08T15:32:47;22.30;63.20
60033;DHT22;45905;50.570;10.428;2023-05-08T15:35:14;22.30;62.60
60033;DHT22;45905;50.570;10.428;2023-05-08T15:37:42;22.50;63.50
60033;DHT22;45905;50.570;10.428;2023-05-08T15:40:09;22.40;62.50
60033;DHT22;45905;50.570;10.428;2023-05-08T15:42:37;22.20;63.20
60033;DHT22;45905;50.570;10.428;2023-05-08T15:45:04;21.80;63.30
60033;DHT22;45905;50.570;10.428;2023-05-08T15:47:32;21.70;64.20
60033;DHT22;45905;50.570;10.428;2023-05-08T15:49:59;21.80;64.90
60033;DHT22;45905;50.570;10.428;2023-05-08T15:52:26;21.90;64.40
60033;DHT22;45905;50.570;10.428;2023-05-08T15:54:54;21.80;64.30
60033;DHT22;45905;50.570;10.428;2023-05-08T15:57:21;21.90;64.60
60033;DHT22;45905;50.570;10.428;2023-05-08T15:59:48;22.00;64.00
60033;DHT22;45905;50.570;10.428;2023-05-08T16:02:15;22.10;63.90
60033;DHT22;45905;50.570;10.428;2023-05-08T16:04:42;22.30;63.10
60033;DHT22;45905;50.570;10.428;2023-05-08T16:07:10;22.10;64.80
60033;DHT22;45905;50.570;10.428;2023-05-08T16:09:37;22.30;64.40
60033;DHT22;45905;50.570;10.428;2023-05-08T16:12:04;22.60;64.20
60033;DHT22;45905;50.570;10.428;2023-05-08T16:14:31;22.50;64.00
60033;DHT22;45905;50.570;10.428;2023-05-08T16:16:58;22.40;64.00
60033;DHT22;45905;50.570;10.428;2023-05-08T16:19:26;22.70;64.00
60033;DHT22;45905;50.570;10.428;2023-05-08T16:21:53;22.60;64.50
60033;DHT22;45905;50.570;10.428;2023-05-08T16:24:20;22.40;62.40
60033;DHT22;45905;50.570;10.428;2023-05-08T16:26:47;22.50;62.40
60033;DHT22;45905;50.570;10.428;2023-05-08T16:29:14;22.20;63.10
60033;DHT22;45905;50.570;10.428;2023-05-08T16:31:41;22.70;64.00
60033;DHT22;45905;50.570;10.428;2023-05-08T16:34:09;22.90;61.50
60033;DHT22;45905;50.570;10.428;2023-05-08T16:36:36;22.90;62.20